createdAt,value
2023-02-12T00:01:51.008Z,100.00
2023-02-12T00:04:21.100Z,100.00
2023-02-12T00:06:49.794Z,100.00
2023-02-12T00:09:18.485Z,100.00
2023-02-12T00:11:47.155Z,100.00
2023-02-12T00:14:15.854Z,100.00
2023-02-12T00:16:44.628Z,100.00
2023-02-12T00:19:13.450Z,100.00
2023-02-12T00:21:43.658Z,100.00
2023-02-12T00:24:12.468Z,100.00
2023-02-12T00:26:41.175Z,100.00
2023-02-12T00:29:10.805Z,100.00
2023-02-12T00:31:39.503Z,100.00
2023-02-12T00:34:08.139Z,100.00
2023-02-12T00:41:23.116Z,100.00
2023-02-12T00:43:52.314Z,100.00
2023-02-12T00:46:22.144Z,100.00
2023-02-12T00:48:51.057Z,100.00
2023-02-12T00:51:22.314Z,100.00
2023-02-12T00:53:51.115Z,100.00
2023-02-12T00:56:51.781Z,100.00
2023-02-12T00:59:21.364Z,100.00
2023-02-12T01:01:50.177Z,100.00
2023-02-12T01:04:19.240Z,100.00
2023-02-12T01:06:49.789Z,100.00
2023-02-12T01:09:19.315Z,100.00
2023-02-12T01:11:51.405Z,100.00
2023-02-12T01:14:20.164Z,100.00
2023-02-12T01:16:48.903Z,100.00
2023-02-12T01:19:17.627Z,100.00
2023-02-12T01:21:46.461Z,100.00
2023-02-12T01:24:15.154Z,100.00
2023-02-12T01:26:43.794Z,100.00
2023-02-12T01:29:13.910Z,100.00
2023-02-12T01:31:43.966Z,100.00
2023-02-12T01:34:13.769Z,100.00
2023-02-12T01:36:42.497Z,100.00
2023-02-12T01:44:21.049Z,100.00
2023-02-12T01:46:56.032Z,100.00
2023-02-12T01:49:33.218Z,100.00
2023-02-12T01:52:09.700Z,100.00
2023-02-12T01:54:39.674Z,100.00
2023-02-12T01:57:13.054Z,100.00
2023-02-12T01:59:46.861Z,100.00
2023-02-12T02:02:16.351Z,100.00
2023-02-12T02:04:53.468Z,100.00
2023-02-12T02:07:22.289Z,100.00
2023-02-12T02:09:52.108Z,100.00
2023-02-12T02:12:38.469Z,100.00
2023-02-12T02:15:10.210Z,100.00
2023-02-12T02:17:57.570Z,100.00
2023-02-12T02:21:15.481Z,100.00
2023-02-12T02:24:39.109Z,100.00
2023-02-12T02:27:28.035Z,100.00
2023-02-12T02:30:40.545Z,100.00
2023-02-12T02:33:30.896Z,100.00
2023-02-12T02:40:28.423Z,100.00
2023-02-12T02:43:04.114Z,100.00
2023-02-12T02:45:42.712Z,100.00
2023-02-12T02:48:18.896Z,100.00
2023-02-12T02:50:57.158Z,100.00
2023-02-12T02:53:33.274Z,100.00
2023-02-12T02:56:08.359Z,100.00
2023-02-12T02:58:43.518Z,100.00
2023-02-12T03:06:24.185Z,100.00
2023-02-12T03:08:57.691Z,100.00
2023-02-12T03:11:30.070Z,100.00
2023-02-12T03:14:08.512Z,100.00
2023-02-12T03:16:45.098Z,100.00
2023-02-12T03:19:21.471Z,100.00
2023-02-12T03:21:59.651Z,100.00
2023-02-12T03:24:37.896Z,100.00
2023-02-12T03:27:14.046Z,100.00
2023-02-12T03:29:42.698Z,100.00
2023-02-12T03:32:48.107Z,100.00
2023-02-12T03:35:24.412Z,100.00
2023-02-12T03:38:04.957Z,100.00
2023-02-12T03:40:42.237Z,100.00
2023-02-12T03:43:24.212Z,100.00
2023-02-12T03:46:01.515Z,100.00
2023-02-12T03:48:38.009Z,100.00
2023-02-12T03:51:22.958Z,100.00
2023-02-12T03:53:53.899Z,100.00
2023-02-12T03:56:36.061Z,100.00
2023-02-12T03:59:05.906Z,100.00
2023-02-12T04:01:36.437Z,100.00
2023-02-12T04:04:09.312Z,100.00
2023-02-12T04:06:38.701Z,100.00
2023-02-12T04:09:13.646Z,100.00
2023-02-12T04:12:01.667Z,100.00
2023-02-12T04:14:42.447Z,100.00
2023-02-12T04:17:23.352Z,100.00
2023-02-12T04:20:09.048Z,100.00
2023-02-12T04:22:54.418Z,100.00
2023-02-12T04:25:46.225Z,100.00
2023-02-12T04:28:32.986Z,100.00
2023-02-12T04:31:07.482Z,100.00
2023-02-12T04:33:47.393Z,100.00
2023-02-12T04:36:23.036Z,100.00
2023-02-12T04:38:58.682Z,100.00
2023-02-12T04:41:29.398Z,100.00
2023-02-12T04:43:58.387Z,100.00
2023-02-12T04:46:27.114Z,100.00
2023-02-12T04:48:59.402Z,100.00
2023-02-12T04:51:28.497Z,100.00
2023-02-12T04:53:57.342Z,100.00
2023-02-12T04:56:26.047Z,100.00
2023-02-12T04:58:57.867Z,100.00
2023-02-12T05:01:28.526Z,100.00
2023-02-12T05:03:58.268Z,100.00
2023-02-12T05:06:27.046Z,100.00
2023-02-12T05:08:55.895Z,100.00
2023-02-12T05:11:24.914Z,100.00
2023-02-12T05:13:56.203Z,100.00
2023-02-12T05:16:25.055Z,100.00
2023-02-12T05:18:53.744Z,100.00
2023-02-12T05:21:22.423Z,100.00
2023-02-12T05:23:51.146Z,100.00
2023-02-12T05:28:59.267Z,100.00
2023-02-12T05:31:27.100Z,99.94
2023-02-12T05:33:55.905Z,99.61
2023-02-12T05:36:25.940Z,99.18
2023-02-12T05:38:59.893Z,99.13
2023-02-12T05:41:29.569Z,99.30
2023-02-12T05:43:58.300Z,99.37
2023-02-12T05:46:28.413Z,99.43
2023-02-12T05:48:57.179Z,99.59
2023-02-12T05:51:29.133Z,99.66
2023-02-12T05:54:01.136Z,99.48
2023-02-12T05:56:32.467Z,99.37
2023-02-12T05:59:03.775Z,99.02
2023-02-12T06:01:36.717Z,98.86
2023-02-12T06:04:08.648Z,99.16
2023-02-12T06:06:37.697Z,99.12
2023-02-12T06:09:06.342Z,99.19
2023-02-12T06:11:35.116Z,99.37
2023-02-12T06:14:04.649Z,99.09
2023-02-12T06:16:38.684Z,99.11
2023-02-12T06:19:08.455Z,99.03
2023-02-12T06:21:37.367Z,99.22
2023-02-12T06:24:09.149Z,99.48
2023-02-12T06:27:33.298Z,98.72
2023-02-12T06:30:02.027Z,98.68
2023-02-12T06:36:57.528Z,99.42
2023-02-12T06:39:26.277Z,99.22
2023-02-12T06:41:55.018Z,99.79
2023-02-12T06:44:23.890Z,99.67
2023-02-12T06:46:53.058Z,99.74
2023-02-12T06:49:21.972Z,99.86
2023-02-12T06:52:19.216Z,100.00
2023-02-12T06:55:21.098Z,99.27
2023-02-12T07:02:16.065Z,98.45
2023-02-12T07:05:02.072Z,98.32
2023-02-12T07:07:34.198Z,98.33
2023-02-12T07:10:03.074Z,98.07
2023-02-12T07:12:31.824Z,98.18
2023-02-12T07:15:00.472Z,97.75
2023-02-12T07:17:31.614Z,97.60
2023-02-12T07:20:00.877Z,98.14
2023-02-12T07:22:33.410Z,98.11
2023-02-12T07:25:20.229Z,98.48
2023-02-12T07:27:53.104Z,98.48
2023-02-12T07:30:22.519Z,98.39
2023-02-12T07:32:51.375Z,98.23
2023-02-12T07:35:20.152Z,97.42
2023-02-12T07:37:56.202Z,97.32
2023-02-12T07:40:36.046Z,97.50
2023-02-12T07:43:04.993Z,97.60
2023-02-12T07:45:39.580Z,97.84
2023-02-12T07:48:15.724Z,97.97
2023-02-12T07:50:44.452Z,98.00
2023-02-12T07:53:14.585Z,97.61
2023-02-12T07:55:58.241Z,98.07
2023-02-12T07:59:04.632Z,97.78
2023-02-12T08:01:38.491Z,97.43
2023-02-12T08:04:10.409Z,97.40
2023-02-12T08:06:46.187Z,97.04
2023-02-12T08:09:19.838Z,97.32
2023-02-12T08:11:49.138Z,97.38
2023-02-12T08:18:29.359Z,96.99
2023-02-12T08:21:03.117Z,96.96
2023-02-12T08:23:32.425Z,96.85
2023-02-12T08:26:12.677Z,97.04
2023-02-12T08:28:45.830Z,97.41
2023-02-12T08:31:18.233Z,98.07
2023-02-12T08:33:48.098Z,98.12
2023-02-12T08:36:22.376Z,97.66
2023-02-12T08:38:52.357Z,97.41
2023-02-12T08:41:27.540Z,97.41
2023-02-12T08:43:59.664Z,97.64
2023-02-12T08:46:55.700Z,97.82
2023-02-12T08:49:27.294Z,98.44
2023-02-12T08:52:01.929Z,98.16
2023-02-12T08:54:33.459Z,97.97
2023-02-12T08:58:18.179Z,98.32
2023-02-12T09:00:48.536Z,98.08
2023-02-12T09:03:17.428Z,98.02
2023-02-12T09:05:46.388Z,98.16
2023-02-12T09:08:19.561Z,99.21
2023-02-12T09:10:48.703Z,99.40
2023-02-12T09:13:19.754Z,99.26
2023-02-12T09:15:54.182Z,99.05
2023-02-12T09:18:24.526Z,98.79
2023-02-12T09:20:53.565Z,98.61
2023-02-12T09:23:22.765Z,98.73
2023-02-12T09:25:51.864Z,98.96
2023-02-12T09:28:20.758Z,98.62
2023-02-12T09:30:54.083Z,98.96
2023-02-12T09:33:24.184Z,99.31
2023-02-12T09:35:53.119Z,98.96
2023-02-12T09:38:22.435Z,99.03
2023-02-12T09:41:30.578Z,98.74
2023-02-12T09:44:10.522Z,98.41
2023-02-12T09:46:52.084Z,98.30
2023-02-12T09:49:44.727Z,97.96
2023-02-12T09:52:19.654Z,97.99
2023-02-12T09:54:50.886Z,98.56
2023-02-12T09:57:29.564Z,98.53
2023-02-12T10:00:32.005Z,98.04
2023-02-12T10:04:07.653Z,98.39
2023-02-12T10:07:09.430Z,98.61
2023-02-12T10:10:15.377Z,99.34
2023-02-12T10:12:55.928Z,99.66
2023-02-12T10:15:45.278Z,99.82
2023-02-12T10:18:57.058Z,99.54
2023-02-12T10:21:53.806Z,99.03
2023-02-12T10:25:04.694Z,97.25
2023-02-12T10:27:44.361Z,98.58
2023-02-12T10:30:25.055Z,98.31
2023-02-12T10:33:05.533Z,97.50
2023-02-12T10:35:46.968Z,98.31
2023-02-12T10:38:24.653Z,97.93
2023-02-12T10:40:58.015Z,97.30
2023-02-12T10:43:29.595Z,96.60
2023-02-12T10:46:02.413Z,96.34
2023-02-12T10:48:41.636Z,97.27
2023-02-12T10:52:05.402Z,96.94
2023-02-12T10:54:44.817Z,96.23
2023-02-12T10:57:33.733Z,96.24
2023-02-12T11:00:33.623Z,95.38
2023-02-12T11:03:41.428Z,93.13
2023-02-12T11:06:47.781Z,93.34
2023-02-12T11:09:31.361Z,94.34
2023-02-12T11:12:01.976Z,94.59
2023-02-12T11:14:32.026Z,94.22
2023-02-12T11:17:03.091Z,93.94
2023-02-12T11:19:36.018Z,93.47
2023-02-12T11:22:18.999Z,92.94
2023-02-12T11:25:00.777Z,92.74
2023-02-12T11:27:33.547Z,92.66
2023-02-12T11:30:19.619Z,92.41
2023-02-12T11:33:18.879Z,92.37
2023-02-12T11:35:57.094Z,92.19
2023-02-12T11:38:34.617Z,91.63
2023-02-12T11:41:25.249Z,90.57
2023-02-12T11:48:20.565Z,90.02
2023-02-12T11:50:51.316Z,90.15
2023-02-12T11:53:45.942Z,90.05
2023-02-12T11:57:36.159Z,90.49
2023-02-12T12:00:38.755Z,90.38
2023-02-12T12:03:45.608Z,89.50
2023-02-12T12:06:40.311Z,89.16
2023-02-12T12:09:22.226Z,88.12
2023-02-12T12:12:15.024Z,89.13
2023-02-12T12:15:07.898Z,89.22
2023-02-12T12:18:05.554Z,89.70
2023-02-12T12:21:00.301Z,89.48
2023-02-12T12:23:39.783Z,89.47
2023-02-12T12:26:22.176Z,90.93
2023-02-12T12:29:24.374Z,91.15
2023-02-12T12:32:32.435Z,90.61
2023-02-12T12:35:04.983Z,91.03
2023-02-12T12:37:46.637Z,91.21
2023-02-12T12:40:51.382Z,91.07
2023-02-12T12:43:36.199Z,92.02
2023-02-12T12:47:16.708Z,92.15
2023-02-12T12:50:30.012Z,92.14
2023-02-12T12:53:20.101Z,92.38
2023-02-12T12:56:30.340Z,92.95
2023-02-12T12:59:38.455Z,92.40
2023-02-12T13:02:59.920Z,92.06
2023-02-12T13:06:42.863Z,92.63
2023-02-12T13:09:47.040Z,92.49
2023-02-12T13:12:58.272Z,92.65
2023-02-12T13:15:38.637Z,93.34
2023-02-12T13:18:26.121Z,93.48
2023-02-12T13:21:04.209Z,93.88
2023-02-12T13:23:44.678Z,93.83
2023-02-12T13:26:30.623Z,94.10
2023-02-12T13:29:11.181Z,94.84
2023-02-12T13:31:50.395Z,94.77
2023-02-12T13:34:21.458Z,95.06
2023-02-12T13:37:02.508Z,95.11
2023-02-12T13:39:42.082Z,95.41
2023-02-12T13:42:43.459Z,95.45
2023-02-12T13:45:48.247Z,95.64
2023-02-12T13:48:43.103Z,94.60
2023-02-12T13:51:27.494Z,94.89
2023-02-12T13:54:50.868Z,94.54
2023-02-12T13:57:24.562Z,94.45
2023-02-12T14:00:00.163Z,94.23
2023-02-12T14:02:50.739Z,94.10
2023-02-12T14:05:27.699Z,94.00
2023-02-12T14:08:02.204Z,93.98
2023-02-12T14:10:38.581Z,93.51
2023-02-12T14:13:24.049Z,93.66
2023-02-12T14:15:59.307Z,93.13
2023-02-12T14:19:33.828Z,93.02
2023-02-12T14:22:04.863Z,92.64
2023-02-12T14:25:26.631Z,92.85
2023-02-12T14:27:59.220Z,92.67
2023-02-12T14:30:36.769Z,92.37
2023-02-12T14:33:28.514Z,92.46
2023-02-12T14:40:47.213Z,91.77
2023-02-12T14:43:54.721Z,91.61
2023-02-12T14:46:54.560Z,92.19
2023-02-12T14:49:30.062Z,92.12
2023-02-12T14:52:21.239Z,91.84
2023-02-12T14:54:54.821Z,91.83
2023-02-12T14:57:29.568Z,92.09
2023-02-12T15:00:02.424Z,91.83
2023-02-12T15:02:37.571Z,92.02
2023-02-12T15:05:21.612Z,91.53
2023-02-12T15:07:58.410Z,91.43
2023-02-12T15:10:37.387Z,91.56
2023-02-12T15:13:30.498Z,91.19
2023-02-12T15:16:10.401Z,91.29
2023-02-12T15:18:52.784Z,91.49
2023-02-12T15:21:27.770Z,92.31
2023-02-12T15:24:09.271Z,92.75
2023-02-12T15:26:46.219Z,92.95
2023-02-12T15:29:28.840Z,93.31
2023-02-12T15:32:01.390Z,92.94
2023-02-12T15:34:39.271Z,93.17
2023-02-12T15:37:11.212Z,93.41
2023-02-12T15:39:45.246Z,94.10
2023-02-12T15:42:31.366Z,93.83
2023-02-12T15:45:22.166Z,93.20
2023-02-12T15:48:06.520Z,93.10
2023-02-12T15:50:42.224Z,92.45
2023-02-12T15:53:14.824Z,92.36
2023-02-12T15:55:46.857Z,91.77
2023-02-12T15:58:28.221Z,91.66
2023-02-12T16:01:03.368Z,91.67
2023-02-12T16:03:36.095Z,91.57
2023-02-12T16:06:35.342Z,91.73
2023-02-12T16:09:10.763Z,91.91
2023-02-12T16:11:43.581Z,91.39
2023-02-12T16:14:24.488Z,92.08
2023-02-12T16:16:56.656Z,92.19
2023-02-12T16:19:29.107Z,92.37
2023-02-12T16:22:07.402Z,92.10
2023-02-12T16:24:41.838Z,92.15
2023-02-12T16:27:21.100Z,92.04
2023-02-12T16:29:53.342Z,91.77
2023-02-12T16:32:37.223Z,91.66
2023-02-12T16:35:26.475Z,92.02
2023-02-12T16:42:29.649Z,92.50
2023-02-12T16:44:58.743Z,92.07
2023-02-12T16:47:28.244Z,91.84
2023-02-12T16:50:02.010Z,91.89
2023-02-12T16:52:39.862Z,92.69
2023-02-12T16:55:14.730Z,92.36
2023-02-12T16:57:47.524Z,91.98
2023-02-12T17:00:19.108Z,92.19
2023-02-12T17:02:48.243Z,92.34
2023-02-12T17:05:18.730Z,91.80
2023-02-12T17:07:50.175Z,91.93
2023-02-12T17:10:19.774Z,91.54
2023-02-12T17:12:53.748Z,92.02
2023-02-12T17:15:30.694Z,91.56
2023-02-12T17:18:00.736Z,91.89
2023-02-12T17:20:29.646Z,92.00
2023-02-12T17:23:00.946Z,91.63
2023-02-12T17:25:30.320Z,91.32
2023-02-12T17:28:01.120Z,91.30
2023-02-12T17:30:34.960Z,91.63
2023-02-12T17:33:03.707Z,91.30
2023-02-12T17:35:32.503Z,92.21
2023-02-12T17:38:01.594Z,91.81
2023-02-12T17:40:33.396Z,91.93
2023-02-12T17:43:04.779Z,91.72
2023-02-12T17:45:34.057Z,92.51
2023-02-12T17:48:02.775Z,93.13
2023-02-12T17:50:33.672Z,93.46
2023-02-12T17:53:02.526Z,92.73
2023-02-12T17:55:33.136Z,91.87
2023-02-12T17:58:03.361Z,92.70
2023-02-12T18:00:35.711Z,93.01
2023-02-12T18:03:04.470Z,92.56
2023-02-12T18:05:33.120Z,91.80
2023-02-12T18:08:03.577Z,91.45
2023-02-12T18:10:32.201Z,91.23
2023-02-12T18:13:00.851Z,92.21
2023-02-12T18:15:30.923Z,93.12
2023-02-12T18:17:59.657Z,93.56
2023-02-12T18:20:28.916Z,92.66
2023-02-12T18:22:58.209Z,93.68
2023-02-12T18:25:27.022Z,93.34
2023-02-12T18:27:55.679Z,92.89
2023-02-12T18:30:26.033Z,92.50
2023-02-12T18:32:59.283Z,92.31
2023-02-12T18:35:27.972Z,91.83
2023-02-12T18:37:56.820Z,91.86
2023-02-12T18:40:26.430Z,91.62
2023-02-12T18:42:56.150Z,91.38
2023-02-12T18:45:24.956Z,92.31
2023-02-12T18:47:53.761Z,92.71
2023-02-12T18:50:23.960Z,92.17
2023-02-12T18:52:55.407Z,91.71
2023-02-12T18:56:07.873Z,92.81
2023-02-12T18:58:44.302Z,92.17
2023-02-12T19:01:38.680Z,92.16
2023-02-12T19:04:16.540Z,91.90
2023-02-12T19:06:57.026Z,91.86
2023-02-12T19:09:28.332Z,92.52
2023-02-12T19:12:01.236Z,93.09
2023-02-12T19:14:30.503Z,93.20
2023-02-12T19:17:10.385Z,93.80
2023-02-12T19:19:39.912Z,94.01
2023-02-12T19:22:47.277Z,93.99
2023-02-12T19:25:16.453Z,93.31
2023-02-12T19:27:45.172Z,93.00
2023-02-12T19:30:35.356Z,92.38
2023-02-12T19:33:04.548Z,91.99
2023-02-12T19:35:33.988Z,92.80
2023-02-12T19:38:04.289Z,92.35
2023-02-12T19:40:33.430Z,93.21
2023-02-12T19:43:02.132Z,93.66
2023-02-12T19:45:30.937Z,93.54
2023-02-12T19:47:59.932Z,92.85
2023-02-12T19:50:46.551Z,92.29
2023-02-12T19:53:16.763Z,92.44
2023-02-12T19:55:46.297Z,92.16
2023-02-12T19:58:15.218Z,92.14
2023-02-12T20:00:45.213Z,91.76
2023-02-12T20:03:18.223Z,92.00
2023-02-12T20:05:52.175Z,91.82
2023-02-12T20:08:44.367Z,91.58
2023-02-12T20:11:16.416Z,91.06
2023-02-12T20:13:47.362Z,92.45
2023-02-12T20:16:19.629Z,93.32
2023-02-12T20:18:54.147Z,93.02
2023-02-12T20:21:28.309Z,92.64
2023-02-12T20:24:01.779Z,92.13
2023-02-12T20:26:32.998Z,92.23
2023-02-12T20:29:11.143Z,91.63
2023-02-12T20:31:41.027Z,92.04
2023-02-12T20:34:18.490Z,92.80
2023-02-12T20:36:50.969Z,92.44
2023-02-12T20:40:01.387Z,91.48
2023-02-12T20:42:30.674Z,91.68
2023-02-12T20:44:59.454Z,91.49
2023-02-12T20:48:21.152Z,92.07
2023-02-12T20:50:49.990Z,91.48
2023-02-12T20:53:18.689Z,91.41
2023-02-12T20:55:48.846Z,91.43
2023-02-12T20:58:17.707Z,91.30
2023-02-12T21:00:46.493Z,91.16
2023-02-12T21:03:15.230Z,91.10
2023-02-12T21:05:43.964Z,90.96
2023-02-12T21:08:12.650Z,91.00
2023-02-12T21:10:41.365Z,90.68
2023-02-12T21:13:11.428Z,90.40
2023-02-12T21:15:40.277Z,91.82
2023-02-12T21:18:09.198Z,91.29
2023-02-12T21:20:38.101Z,90.72
2023-02-12T21:23:06.755Z,90.26
2023-02-12T21:25:35.536Z,89.38
2023-02-12T21:28:04.351Z,89.60
2023-02-12T21:30:34.565Z,89.19
2023-02-12T21:33:03.258Z,88.34
2023-02-12T21:35:31.967Z,90.20
2023-02-12T21:38:00.654Z,89.51
2023-02-12T21:40:29.287Z,90.33
2023-02-12T21:42:58.042Z,91.08
2023-02-12T21:45:26.874Z,90.63
2023-02-12T21:47:57.002Z,90.12
2023-02-12T21:50:25.648Z,89.66
2023-02-12T21:52:54.577Z,90.40
2023-02-12T21:55:23.268Z,90.58
2023-02-12T21:57:51.928Z,91.25
2023-02-12T22:00:21.794Z,90.74
2023-02-12T22:02:50.777Z,89.90
2023-02-12T22:05:20.971Z,89.83
2023-02-12T22:07:50.856Z,89.59
2023-02-12T22:10:20.191Z,88.59
2023-02-12T22:12:49.084Z,89.39
2023-02-12T22:15:18.035Z,90.40
2023-02-12T22:17:46.878Z,90.34
2023-02-12T22:20:15.958Z,90.22
2023-02-12T22:22:46.153Z,90.59
2023-02-12T22:25:14.798Z,90.47
2023-02-12T22:27:43.548Z,90.08
2023-02-12T22:30:13.302Z,89.74
2023-02-12T22:32:42.212Z,90.20
2023-02-12T22:35:11.426Z,91.10
2023-02-12T22:37:42.082Z,92.13
2023-02-12T22:40:14.367Z,91.51
2023-02-12T22:42:43.179Z,91.30
2023-02-12T22:45:12.163Z,91.81
2023-02-12T22:47:40.949Z,92.04
2023-02-12T22:50:10.548Z,90.53
2023-02-12T22:52:39.518Z,91.67
2023-02-12T22:58:01.111Z,91.19
2023-02-12T23:00:28.862Z,91.03
2023-02-12T23:02:57.986Z,91.16
2023-02-12T23:05:27.501Z,90.77
2023-02-12T23:07:56.331Z,91.99
2023-02-12T23:10:25.115Z,92.12
2023-02-12T23:12:53.881Z,91.84
2023-02-12T23:15:24.020Z,92.04
2023-02-12T23:17:53.192Z,91.69
2023-02-12T23:20:22.076Z,91.06
2023-02-12T23:22:50.913Z,90.74
2023-02-12T23:25:19.635Z,90.57
2023-02-12T23:27:48.227Z,91.29
2023-02-12T23:30:17.263Z,92.65
2023-02-12T23:32:47.225Z,93.46
2023-02-12T23:35:16.071Z,93.38
2023-02-12T23:37:45.564Z,92.90
2023-02-12T23:40:15.466Z,92.42
2023-02-12T23:42:44.147Z,92.11
2023-02-12T23:45:12.815Z,92.05
2023-02-12T23:47:41.770Z,92.31
2023-02-12T23:50:12.750Z,93.20
2023-02-12T23:52:41.639Z,92.80
2023-02-12T23:55:10.676Z,92.75
2023-02-12T23:57:39.303Z,92.92
